createdAt,value
2024-05-09T00:02:04.056Z,25.23
2024-05-09T00:04:37.156Z,23.67
2024-05-09T00:07:09.496Z,28.70
2024-05-09T00:09:40.170Z,25.53
2024-05-09T00:12:10.613Z,25.90
2024-05-09T00:14:40.959Z,27.50
2024-05-09T00:17:11.141Z,25.47
2024-05-09T00:19:45.770Z,23.03
2024-05-09T00:23:09.728Z,28.53
2024-05-09T00:26:25.649Z,23.83
2024-05-09T00:29:24.728Z,26.63
2024-05-09T00:32:33.655Z,30.57
2024-05-09T00:35:24.811Z,24.90
2024-05-09T00:38:13.475Z,30.07
2024-05-09T00:41:10.474Z,28.60
2024-05-09T00:43:56.381Z,27.53
2024-05-09T00:49:55.091Z,32.00
2024-05-09T00:52:32.960Z,27.00
2024-05-09T00:55:06.028Z,29.00
2024-05-09T00:57:36.560Z,32.43
2024-05-09T01:00:22.440Z,30.67
2024-05-09T01:03:13.362Z,27.50
2024-05-09T01:05:59.969Z,30.30
2024-05-09T01:08:43.306Z,28.20
2024-05-09T01:11:20.466Z,33.07
2024-05-09T01:14:03.601Z,30.80
2024-05-09T01:17:20.130Z,36.00
2024-05-09T01:19:58.376Z,28.10
2024-05-09T01:22:34.690Z,30.23
2024-05-09T01:25:09.464Z,30.57
2024-05-09T01:27:41.222Z,30.77
2024-05-09T01:30:24.330Z,32.40
2024-05-09T01:32:59.698Z,28.07
2024-05-09T01:35:31.994Z,40.33
2024-05-09T01:38:02.674Z,30.83
2024-05-09T01:40:41.349Z,31.90
2024-05-09T01:43:22.734Z,32.40
2024-05-09T01:46:06.325Z,28.47
2024-05-09T01:49:34.928Z,31.47
2024-05-09T01:52:40.736Z,31.53
2024-05-09T01:55:27.361Z,33.63
2024-05-09T01:58:07.753Z,33.73
2024-05-09T02:01:17.212Z,29.73
2024-05-09T02:05:03.948Z,27.10
2024-05-09T02:07:35.677Z,31.90
2024-05-09T02:10:13.654Z,33.33
2024-05-09T02:12:50.888Z,34.23
2024-05-09T02:15:24.148Z,30.83
2024-05-09T02:17:57.889Z,30.80
2024-05-09T02:20:36.552Z,32.47
2024-05-09T02:23:32.786Z,31.10
2024-05-09T02:26:16.455Z,30.30
2024-05-09T02:28:52.438Z,40.50
2024-05-09T02:31:25.429Z,37.13
2024-05-09T02:34:10.715Z,33.20
2024-05-09T02:36:41.336Z,34.30
2024-05-09T02:39:12.445Z,35.30
2024-05-09T02:41:42.560Z,36.00
2024-05-09T02:44:10.455Z,32.20
2024-05-09T02:46:43.407Z,33.83
2024-05-09T02:49:11.469Z,32.40
2024-05-09T02:51:44.106Z,30.03
2024-05-09T02:54:21.674Z,30.63
2024-05-09T02:57:18.658Z,27.93
2024-05-09T03:00:18.837Z,31.17
2024-05-09T03:03:12.477Z,31.33
2024-05-09T03:05:46.350Z,28.97
2024-05-09T03:08:17.394Z,37.00
2024-05-09T03:10:45.285Z,31.27
2024-05-09T03:13:17.391Z,33.20
2024-05-09T03:15:46.071Z,35.17
2024-05-09T03:18:22.327Z,33.37
2024-05-09T03:20:56.462Z,35.90
2024-05-09T03:23:40.242Z,36.13
2024-05-09T03:26:11.386Z,34.70
2024-05-09T03:28:48.720Z,31.77
2024-05-09T03:34:34.365Z,28.50
2024-05-09T03:37:11.111Z,31.37
2024-05-09T03:40:23.674Z,34.50
2024-05-09T03:43:58.581Z,39.73
2024-05-09T03:46:32.785Z,33.93
2024-05-09T03:49:11.865Z,29.90
2024-05-09T03:51:47.006Z,30.83
2024-05-09T03:54:14.979Z,32.00
2024-05-09T03:56:51.302Z,35.20
2024-05-09T03:59:19.973Z,32.67
2024-05-09T04:01:53.379Z,33.13
2024-05-09T04:04:20.742Z,32.53
2024-05-09T04:06:53.307Z,33.90
2024-05-09T04:09:20.666Z,29.97
2024-05-09T04:11:51.985Z,35.03
2024-05-09T04:14:20.297Z,32.70
2024-05-09T04:16:51.595Z,33.50
2024-05-09T04:19:19.297Z,31.23
2024-05-09T04:21:50.601Z,31.80
2024-05-09T04:24:21.657Z,31.67
2024-05-09T04:26:52.354Z,32.87
2024-05-09T04:29:20.475Z,37.93
2024-05-09T04:31:50.912Z,31.07
2024-05-09T04:34:18.573Z,32.60
2024-05-09T04:36:49.342Z,30.50
2024-05-09T04:39:21.336Z,34.20
2024-05-09T04:41:51.129Z,37.17
2024-05-09T04:44:18.793Z,32.40
2024-05-09T04:46:49.891Z,30.00
2024-05-09T04:49:17.297Z,30.87
2024-05-09T04:51:47.353Z,32.73
2024-05-09T04:54:26.069Z,34.50
2024-05-09T04:57:06.550Z,32.83
2024-05-09T04:59:34.014Z,34.30
2024-05-09T05:02:03.972Z,34.80
2024-05-09T05:04:31.650Z,33.17
2024-05-09T05:07:02.962Z,29.33
2024-05-09T05:09:32.303Z,28.60
2024-05-09T05:12:26.871Z,32.57
2024-05-09T05:14:54.199Z,27.27
2024-05-09T05:17:24.132Z,33.00
2024-05-09T05:19:51.550Z,35.43
2024-05-09T05:22:21.346Z,30.90
2024-05-09T05:24:48.551Z,31.20
2024-05-09T05:27:21.366Z,31.93
2024-05-09T05:29:48.636Z,33.03
2024-05-09T05:32:18.810Z,36.27
2024-05-09T05:34:46.194Z,39.13
2024-05-09T05:37:16.098Z,36.30
2024-05-09T05:39:43.244Z,37.37
2024-05-09T05:42:14.924Z,39.73
2024-05-09T05:44:46.287Z,44.63
2024-05-09T05:47:17.958Z,37.97
2024-05-09T05:49:45.356Z,42.20
2024-05-09T05:52:15.358Z,40.43
2024-05-09T05:54:42.677Z,40.77
2024-05-09T05:57:13.683Z,51.87
2024-05-09T05:59:41.320Z,43.40
2024-05-09T06:02:14.060Z,40.40
2024-05-09T06:04:42.210Z,40.30
2024-05-09T06:07:12.127Z,40.90
2024-05-09T06:09:39.492Z,44.37
2024-05-09T06:12:09.761Z,43.63
2024-05-09T06:14:37.315Z,42.23
2024-05-09T06:17:07.383Z,42.27
2024-05-09T06:19:37.381Z,38.07
2024-05-09T06:22:09.548Z,40.60
2024-05-09T06:24:37.179Z,43.43
2024-05-09T06:27:08.614Z,47.10
2024-05-09T06:29:38.277Z,45.03
2024-05-09T06:32:08.696Z,46.37
2024-05-09T06:34:38.947Z,41.17
2024-05-09T06:37:09.779Z,47.13
2024-05-09T06:39:37.518Z,39.90
2024-05-09T06:42:07.602Z,40.63
2024-05-09T06:44:35.282Z,40.57
2024-05-09T06:47:05.497Z,43.30
2024-05-09T06:49:33.128Z,38.10
2024-05-09T06:52:06.191Z,40.73
2024-05-09T06:54:33.486Z,43.47
2024-05-09T06:57:03.548Z,40.43
2024-05-09T06:59:34.715Z,39.70
2024-05-09T07:02:05.307Z,42.90
2024-05-09T07:04:32.682Z,45.43
2024-05-09T07:07:07.432Z,42.50
2024-05-09T07:09:34.719Z,38.73
2024-05-09T07:12:04.729Z,38.77
2024-05-09T07:14:33.943Z,42.50
2024-05-09T07:17:04.795Z,42.13
2024-05-09T07:19:32.626Z,38.47
2024-05-09T07:22:05.248Z,39.07
2024-05-09T07:24:32.703Z,36.60
2024-05-09T07:27:04.371Z,45.40
2024-05-09T07:29:33.458Z,36.07
2024-05-09T07:32:09.335Z,42.97
2024-05-09T07:34:37.125Z,44.20
2024-05-09T07:37:12.692Z,42.53
2024-05-09T07:39:40.475Z,39.37
2024-05-09T07:42:10.661Z,36.10
2024-05-09T07:44:38.613Z,39.70
2024-05-09T07:48:14.674Z,33.00
2024-05-09T07:53:32.688Z,34.37
2024-05-09T07:55:19.333Z,37.90
2024-05-09T07:57:49.428Z,35.97
2024-05-09T08:00:23.516Z,36.97
2024-05-09T08:02:57.457Z,35.00
2024-05-09T08:05:25.203Z,41.63
2024-05-09T08:07:58.795Z,36.07
2024-05-09T08:10:29.087Z,34.03
2024-05-09T08:13:00.390Z,32.00
2024-05-09T08:15:28.530Z,36.00
2024-05-09T08:17:59.163Z,33.63
2024-05-09T08:20:31.225Z,33.10
2024-05-09T08:23:08.065Z,42.03
2024-05-09T08:25:35.695Z,32.83
2024-05-09T08:28:07.114Z,30.43
2024-05-09T08:30:37.310Z,29.23
2024-05-09T08:33:09.060Z,36.57
2024-05-09T08:35:36.551Z,35.03
2024-05-09T08:38:10.365Z,30.77
2024-05-09T08:40:38.582Z,25.03
2024-05-09T08:43:12.179Z,26.37
2024-05-09T08:45:44.273Z,35.83
2024-05-09T08:48:16.895Z,26.97
2024-05-09T08:50:45.668Z,22.77
2024-05-09T08:53:19.075Z,27.90
2024-05-09T08:55:47.442Z,30.13
2024-05-09T08:58:19.550Z,27.17
2024-05-09T09:00:48.088Z,28.10
2024-05-09T09:03:21.359Z,29.20
2024-05-09T09:05:58.299Z,22.40
2024-05-09T09:08:31.807Z,26.20
2024-05-09T09:10:59.768Z,27.17
2024-05-09T09:13:30.151Z,26.40
2024-05-09T09:15:59.370Z,23.60
2024-05-09T09:18:30.822Z,22.77
2024-05-09T09:20:58.770Z,20.60
2024-05-09T09:23:32.278Z,21.60
2024-05-09T09:26:00.423Z,22.90
2024-05-09T09:28:31.015Z,19.90
2024-05-09T09:31:02.588Z,18.30
2024-05-09T09:33:36.288Z,20.80
2024-05-09T09:36:06.898Z,15.00
2024-05-09T09:38:42.439Z,12.30
2024-05-09T09:41:11.335Z,13.73
2024-05-09T09:43:42.696Z,15.93
2024-05-09T09:46:12.951Z,13.93
2024-05-09T09:48:44.546Z,14.03
2024-05-09T09:51:14.174Z,16.13
2024-05-09T09:53:47.271Z,14.43
2024-05-09T09:56:18.187Z,13.20
2024-05-09T09:58:49.676Z,16.23
2024-05-09T10:01:17.486Z,17.23
2024-05-09T10:03:48.130Z,10.47
2024-05-09T10:06:17.166Z,16.23
2024-05-09T10:08:51.417Z,9.40
2024-05-09T10:11:20.408Z,10.47
2024-05-09T10:13:54.999Z,13.13
2024-05-09T10:16:22.777Z,12.50
2024-05-09T10:18:52.948Z,10.03
2024-05-09T10:21:21.146Z,10.80
2024-05-09T10:24:05.849Z,8.67
2024-05-09T10:26:34.152Z,11.43
2024-05-09T10:29:12.895Z,11.70
2024-05-09T10:31:42.264Z,12.07
2024-05-09T10:34:19.697Z,10.60
2024-05-09T10:36:53.269Z,9.10
2024-05-09T10:39:27.542Z,12.63
2024-05-09T10:41:55.366Z,18.43
2024-05-09T10:44:25.284Z,9.03
2024-05-09T10:46:54.743Z,10.37
2024-05-09T10:49:25.826Z,9.13
2024-05-09T10:51:53.212Z,7.77
2024-05-09T10:54:27.076Z,12.70
2024-05-09T10:56:57.760Z,11.63
2024-05-09T10:59:27.757Z,7.13
2024-05-09T11:01:55.447Z,10.40
2024-05-09T11:04:25.575Z,14.07
2024-05-09T11:06:53.000Z,16.80
2024-05-09T11:09:28.137Z,10.73
2024-05-09T11:11:55.596Z,11.57
2024-05-09T11:14:25.494Z,12.73
2024-05-09T11:16:59.069Z,10.70
2024-05-09T11:19:33.233Z,11.97
2024-05-09T11:22:01.986Z,14.93
2024-05-09T11:24:35.623Z,19.97
2024-05-09T11:27:04.536Z,89.00
2024-05-09T11:29:41.692Z,161.37
2024-05-09T11:32:11.601Z,16.73
2024-05-09T11:34:42.221Z,44.40
2024-05-09T11:37:10.562Z,24.90
2024-05-09T11:39:43.172Z,12.00
2024-05-09T11:42:10.587Z,22.53
2024-05-09T11:44:40.486Z,19.27
2024-05-09T11:47:07.885Z,17.90
2024-05-09T11:49:38.001Z,9.47
2024-05-09T11:52:05.781Z,13.73
2024-05-09T11:54:35.747Z,9.23
2024-05-09T11:57:05.782Z,10.63
2024-05-09T11:59:35.810Z,13.50
2024-05-09T12:02:03.424Z,12.13
2024-05-09T12:04:33.562Z,10.23
2024-05-09T12:07:01.086Z,10.43
2024-05-09T12:09:31.987Z,11.73
2024-05-09T12:11:59.670Z,12.80
2024-05-09T12:14:32.608Z,15.23
2024-05-09T12:17:01.212Z,12.30
2024-05-09T12:19:31.356Z,11.60
2024-05-09T12:21:58.819Z,14.00
2024-05-09T12:24:30.504Z,11.80
2024-05-09T12:26:57.988Z,8.97
2024-05-09T12:29:28.143Z,10.23
2024-05-09T12:31:58.096Z,10.20
2024-05-09T12:34:28.012Z,7.40
2024-05-09T12:36:55.983Z,9.90
2024-05-09T12:39:25.931Z,9.30
2024-05-09T12:41:55.796Z,7.77
2024-05-09T12:44:25.594Z,7.27
2024-05-09T12:46:52.968Z,8.13
2024-05-09T12:49:26.646Z,13.63
2024-05-09T12:51:54.058Z,7.30
2024-05-09T12:54:24.339Z,10.47
2024-05-09T12:56:51.651Z,6.57
2024-05-09T12:59:21.596Z,9.80
2024-05-09T13:01:49.051Z,9.20
2024-05-09T13:04:19.333Z,7.73
2024-05-09T13:06:50.659Z,5.63
2024-05-09T13:09:20.932Z,6.77
2024-05-09T13:11:48.358Z,11.83
2024-05-09T13:14:18.378Z,6.90
2024-05-09T13:16:46.038Z,8.90
2024-05-09T13:19:15.947Z,9.67
2024-05-09T13:21:48.295Z,11.23
2024-05-09T13:24:20.918Z,9.67
2024-05-09T13:26:48.332Z,10.30
2024-05-09T13:29:21.274Z,8.30
2024-05-09T13:31:48.665Z,8.53
2024-05-09T13:34:18.690Z,7.83
2024-05-09T13:36:46.164Z,10.03
2024-05-09T13:39:16.097Z,9.33
2024-05-09T13:41:46.151Z,8.13
2024-05-09T13:44:16.176Z,4.70
2024-05-09T13:46:43.649Z,8.60
2024-05-09T13:49:18.098Z,9.43
2024-05-09T13:51:45.618Z,7.10
2024-05-09T13:54:17.335Z,6.50
2024-05-09T13:56:48.558Z,8.67
2024-05-09T13:59:18.496Z,10.13
2024-05-09T14:01:46.771Z,7.80
2024-05-09T14:04:17.488Z,7.63
2024-05-09T14:06:46.911Z,7.33
2024-05-09T14:09:18.637Z,11.03
2024-05-09T14:11:48.686Z,12.37
2024-05-09T14:14:18.781Z,5.90
2024-05-09T14:16:46.264Z,6.70
2024-05-09T14:19:16.491Z,5.80
2024-05-09T14:21:43.807Z,5.73
2024-05-09T14:24:16.370Z,5.83
2024-05-09T14:26:47.398Z,8.03
2024-05-09T14:29:17.298Z,7.73
2024-05-09T14:31:47.355Z,8.80
2024-05-09T14:34:15.306Z,9.37
2024-05-09T14:36:45.651Z,5.93
2024-05-09T14:39:13.136Z,5.80
2024-05-09T14:41:43.101Z,6.13
2024-05-09T14:44:13.107Z,10.13
2024-05-09T14:46:45.758Z,7.47
2024-05-09T14:49:13.110Z,6.20
2024-05-09T14:51:43.111Z,5.17
2024-05-09T14:54:10.408Z,5.83
2024-05-09T14:56:40.461Z,8.90
2024-05-09T14:59:08.555Z,6.40
2024-05-09T15:01:38.586Z,4.23
2024-05-09T15:04:08.909Z,8.20
2024-05-09T15:06:42.567Z,6.23
2024-05-09T15:09:10.442Z,3.73
2024-05-09T15:11:40.526Z,7.13
2024-05-09T15:14:07.878Z,8.13
2024-05-09T15:16:37.895Z,4.63
2024-05-09T15:19:05.600Z,9.30
2024-05-09T15:21:38.308Z,6.60
2024-05-09T15:24:06.410Z,7.03
2024-05-09T15:26:36.469Z,7.03
2024-05-09T15:29:03.722Z,6.03
2024-05-09T15:31:34.029Z,8.20
2024-05-09T15:34:01.604Z,5.83
2024-05-09T15:36:31.839Z,6.30
2024-05-09T15:39:01.858Z,4.83
2024-05-09T15:41:32.072Z,6.10
2024-05-09T15:43:59.306Z,4.57
2024-05-09T15:46:29.724Z,7.30
2024-05-09T15:48:57.376Z,6.23
2024-05-09T15:51:27.333Z,4.60
2024-05-09T15:53:54.619Z,9.30
2024-05-09T15:56:27.105Z,10.50
2024-05-09T15:58:54.508Z,5.30
2024-05-09T16:01:24.510Z,6.70
2024-05-09T16:03:52.206Z,3.83
2024-05-09T16:06:22.238Z,5.57
2024-05-09T16:08:49.517Z,6.37
2024-05-09T16:11:20.782Z,6.00
2024-05-09T16:18:36.195Z,6.40
2024-05-09T16:21:03.525Z,6.13
2024-05-09T16:23:33.261Z,9.90
2024-05-09T16:26:00.552Z,8.37
2024-05-09T16:28:30.467Z,4.43
2024-05-09T16:30:58.220Z,6.00
2024-05-09T16:33:28.217Z,4.37
2024-05-09T16:35:58.334Z,5.10
2024-05-09T16:38:30.403Z,5.83
2024-05-09T16:40:57.709Z,7.30
2024-05-09T16:43:27.626Z,5.20
2024-05-09T16:45:57.690Z,7.13
2024-05-09T16:48:27.596Z,6.50
2024-05-09T16:50:59.699Z,8.43
2024-05-09T16:53:30.465Z,5.33
2024-05-09T16:55:57.730Z,6.80
2024-05-09T16:58:27.952Z,7.10
2024-05-09T17:00:55.425Z,6.93
2024-05-09T17:03:25.875Z,4.93
2024-05-09T17:05:53.367Z,6.20
2024-05-09T17:08:25.811Z,5.80
2024-05-09T17:10:53.145Z,4.83
2024-05-09T17:13:23.305Z,8.13
2024-05-09T17:15:56.458Z,4.30
2024-05-09T17:18:27.150Z,6.83
2024-05-09T17:20:54.860Z,5.67
2024-05-09T17:23:28.191Z,6.27
2024-05-09T17:25:56.335Z,8.20
2024-05-09T17:28:28.928Z,6.20
2024-05-09T17:30:56.615Z,11.20
2024-05-09T17:33:26.596Z,8.80
2024-05-09T17:35:58.975Z,9.43
2024-05-09T17:38:34.586Z,6.80
2024-05-09T17:41:04.510Z,6.80
2024-05-09T17:43:31.772Z,6.60
2024-05-09T17:46:05.933Z,7.60
2024-05-09T17:48:33.430Z,8.47
2024-05-09T17:51:03.383Z,7.27
2024-05-09T17:53:35.550Z,6.43
2024-05-09T17:56:05.501Z,9.73
2024-05-09T17:58:32.873Z,9.90
2024-05-09T18:01:03.290Z,10.80
2024-05-09T18:03:30.914Z,7.47
2024-05-09T18:06:01.327Z,10.03
2024-05-09T18:08:28.582Z,6.70
2024-05-09T18:11:01.126Z,7.70
2024-05-09T18:13:29.036Z,7.17
2024-05-09T18:15:58.946Z,8.07
2024-05-09T18:18:26.234Z,9.00
2024-05-09T18:20:56.168Z,8.40
2024-05-09T18:23:23.438Z,8.30
2024-05-09T18:25:54.606Z,10.90
2024-05-09T18:28:25.132Z,11.73
2024-05-09T18:30:55.049Z,10.27
2024-05-09T18:33:26.012Z,11.23
2024-05-09T18:35:56.010Z,10.73
2024-05-09T18:38:26.663Z,9.93
2024-05-09T18:40:56.678Z,9.37
2024-05-09T18:43:37.999Z,14.07
2024-05-09T18:46:12.132Z,9.80
2024-05-09T18:48:39.432Z,8.83
2024-05-09T18:51:09.682Z,10.87
2024-05-09T18:53:40.880Z,8.10
2024-05-09T18:56:11.625Z,9.87
2024-05-09T18:58:43.982Z,9.10
2024-05-09T19:01:11.301Z,9.90
2024-05-09T19:03:41.390Z,11.03
2024-05-09T19:06:09.501Z,11.63
2024-05-09T19:08:39.350Z,9.13
2024-05-09T19:11:07.236Z,10.37
2024-05-09T19:13:39.568Z,13.37
2024-05-09T19:16:10.013Z,8.57
2024-05-09T19:18:42.505Z,8.57
2024-05-09T19:21:12.301Z,8.80
2024-05-09T19:23:50.799Z,10.80
2024-05-09T19:26:19.668Z,9.17
2024-05-09T19:28:51.830Z,11.00
2024-05-09T19:31:22.906Z,8.53
2024-05-09T19:33:52.815Z,8.77
2024-05-09T19:36:27.702Z,8.60
2024-05-09T19:38:57.467Z,10.23
2024-05-09T19:41:24.630Z,8.23
2024-05-09T19:43:54.817Z,9.03
2024-05-09T19:46:25.037Z,8.80
2024-05-09T19:48:55.337Z,9.97
2024-05-09T19:51:22.633Z,8.70
2024-05-09T19:53:55.204Z,8.13
2024-05-09T19:56:22.793Z,8.20
2024-05-09T19:58:52.685Z,10.50
2024-05-09T20:01:19.950Z,10.57
2024-05-09T20:03:58.981Z,12.63
2024-05-09T20:06:28.125Z,10.10
2024-05-09T20:11:40.658Z,8.80
2024-05-09T20:14:10.775Z,9.47
2024-05-09T20:16:38.002Z,10.70
2024-05-09T20:19:12.860Z,9.20
2024-05-09T20:21:45.062Z,11.50
2024-05-09T20:24:15.018Z,12.47
2024-05-09T20:26:42.990Z,9.73
2024-05-09T20:29:12.756Z,14.47
2024-05-09T20:31:41.204Z,10.57
2024-05-09T20:34:14.028Z,10.17
2024-05-09T20:36:43.552Z,8.37
2024-05-09T20:39:13.652Z,11.00
2024-05-09T20:41:42.893Z,9.10
2024-05-09T20:44:12.933Z,8.57
2024-05-09T20:46:41.038Z,7.73
2024-05-09T20:49:16.903Z,10.37
2024-05-09T20:51:44.472Z,9.90
2024-05-09T20:54:14.487Z,9.37
2024-05-09T20:56:41.725Z,11.53
2024-05-09T20:59:11.708Z,8.43
2024-05-09T21:01:39.113Z,12.30
2024-05-09T21:04:09.755Z,9.50
2024-05-09T21:06:40.633Z,11.03
2024-05-09T21:09:10.498Z,9.13
2024-05-09T21:11:37.736Z,10.80
2024-05-09T21:14:07.602Z,17.83
2024-05-09T21:16:34.975Z,12.30
2024-05-09T21:19:04.865Z,8.80
2024-05-09T21:21:41.811Z,10.93
2024-05-09T21:24:11.742Z,10.93
2024-05-09T21:26:38.977Z,8.83
2024-05-09T21:29:11.642Z,9.67
2024-05-09T21:31:38.927Z,13.17
2024-05-09T21:34:09.441Z,13.23
2024-05-09T21:36:36.830Z,14.70
2024-05-09T21:39:11.310Z,17.00
2024-05-09T21:41:38.823Z,12.43
2024-05-09T21:44:08.693Z,12.57
2024-05-09T21:46:35.925Z,11.30
2024-05-09T21:49:05.969Z,11.83
2024-05-09T21:51:35.839Z,22.17
2024-05-09T21:54:05.811Z,16.00
2024-05-09T21:56:35.588Z,11.53
2024-05-09T21:59:06.541Z,10.67
2024-05-09T22:01:35.847Z,12.00
2024-05-09T22:04:05.825Z,14.20
2024-05-09T22:06:33.170Z,10.77
2024-05-09T22:09:05.163Z,10.10
2024-05-09T22:11:35.138Z,10.07
2024-05-09T22:14:05.570Z,10.77
2024-05-09T22:16:32.876Z,9.67
2024-05-09T22:19:02.762Z,10.30
2024-05-09T22:21:32.641Z,10.70
2024-05-09T22:24:05.477Z,11.00
2024-05-09T22:26:35.995Z,11.40
2024-05-09T22:29:08.831Z,11.83
2024-05-09T22:31:36.054Z,10.47
2024-05-09T22:34:06.187Z,11.57
2024-05-09T22:36:33.526Z,11.17
2024-05-09T22:39:06.507Z,17.37
2024-05-09T22:41:39.134Z,10.33
2024-05-09T22:44:11.549Z,13.63
2024-05-09T22:46:38.754Z,14.30
2024-05-09T22:49:11.509Z,10.13
2024-05-09T22:51:38.821Z,9.93
2024-05-09T22:54:09.287Z,13.10
2024-05-09T22:56:39.170Z,13.83
2024-05-09T22:59:09.724Z,11.93
2024-05-09T23:01:39.634Z,14.97
2024-05-09T23:04:09.591Z,13.83
2024-05-09T23:06:40.627Z,14.90
2024-05-09T23:09:13.645Z,13.80
2024-05-09T23:11:45.701Z,17.53
2024-05-09T23:14:15.936Z,15.43
2024-05-09T23:16:43.238Z,12.10
2024-05-09T23:19:13.035Z,23.73
2024-05-09T23:21:40.637Z,15.40
2024-05-09T23:24:10.390Z,15.13
2024-05-09T23:26:49.123Z,19.70
2024-05-09T23:29:17.086Z,11.13
2024-05-09T23:31:46.930Z,11.73
2024-05-09T23:34:15.035Z,11.50
2024-05-09T23:36:45.670Z,14.50
2024-05-09T23:39:12.826Z,14.73
2024-05-09T23:41:42.732Z,12.43
2024-05-09T23:44:12.489Z,13.30
2024-05-09T23:46:42.644Z,14.20
2024-05-09T23:49:11.156Z,12.63
2024-05-09T23:51:41.059Z,12.90
2024-05-09T23:54:11.982Z,11.30
2024-05-09T23:56:44.261Z,16.07
2024-05-09T23:59:14.743Z,13.20
